SALOWS 161850Z 16008KT 9999 FEW020 SCT024 BKN040 M00/M04 Q1016 R15/2///95 NOSIG
FTLOWS 161715Z 1618/1718 15005KT 9999 SCT030 BKN040 TX03/1713Z TNM02/1705Z TEMPO 1620/1708 VRB02KT 4000 BR BKN002 TEMPO 1709/1716 SCT040 BKN300